sensor_id;sensor_type;location;lat;lon;timestamp;temperature;humidity
32660;DHT22;19064;47.912;12.308;2023-04-25T00:01:32;6.60;99.90
32660;DHT22;19064;47.912;12.308;2023-04-25T00:04:02;6.50;99.90
32660;DHT22;19064;47.912;12.308;2023-04-25T00:06:31;6.40;99.90
32660;DHT22;19064;47.912;12.308;2023-04-25T00:08:58;6.40;99.90
32660;DHT22;19064;47.912;12.308;2023-04-25T00:11:25;6.40;99.90
32660;DHT22;19064;47.912;12.308;2023-04-25T00:13:51;6.50;99.90
32660;DHT22;19064;47.912;12.308;2023-04-25T00:16:19;6.50;99.90
32660;DHT22;19064;47.912;12.308;2023-04-25T00:18:46;6.50;99.90
32660;DHT22;19064;47.912;12.308;2023-04-25T00:21:18;6.60;99.90
32660;DHT22;19064;47.912;12.308;2023-04-25T00:23:45;6.70;99.90
32660;DHT22;19064;47.912;12.308;2023-04-25T00:26:13;6.90;99.90
32660;DHT22;19064;47.912;12.308;2023-04-25T00:28:40;6.90;99.90
32660;DHT22;19064;47.912;12.308;2023-04-25T00:31:07;7.00;99.90
32660;DHT22;19064;47.912;12.308;2023-04-25T00:33:33;7.10;99.90
32660;DHT22;19064;47.912;12.308;2023-04-25T00:36:00;7.20;99.90
32660;DHT22;19064;47.912;12.308;2023-04-25T00:38:28;7.30;99.90
32660;DHT22;19064;47.912;12.308;2023-04-25T00:40:55;7.20;99.90
32660;DHT22;19064;47.912;12.308;2023-04-25T00:43:23;7.10;99.90
32660;DHT22;19064;47.912;12.308;2023-04-25T00:45:52;7.10;99.90
32660;DHT22;19064;47.912;12.308;2023-04-25T00:48:21;7.00;99.90
32660;DHT22;19064;47.912;12.308;2023-04-25T00:50:52;7.10;99.90
32660;DHT22;19064;47.912;12.308;2023-04-25T00:53:19;7.20;99.90
32660;DHT22;19064;47.912;12.308;2023-04-25T00:55:48;7.10;99.90
32660;DHT22;19064;47.912;12.308;2023-04-25T00:58:16;7.20;99.90
32660;DHT22;19064;47.912;12.308;2023-04-25T01:00:44;7.20;99.90
32660;DHT22;19064;47.912;12.308;2023-04-25T01:03:12;7.20;99.90
32660;DHT22;19064;47.912;12.308;2023-04-25T01:05:40;7.20;99.90
32660;DHT22;19064;47.912;12.308;2023-04-25T01:08:08;7.10;99.90
32660;DHT22;19064;47.912;12.308;2023-04-25T01:10:35;7.10;99.90
32660;DHT22;19064;47.912;12.308;2023-04-25T01:13:03;7.30;99.90
32660;DHT22;19064;47.912;12.308;2023-04-25T01:15:30;7.30;99.90
32660;DHT22;19064;47.912;12.308;2023-04-25T01:17:57;7.30;99.90
32660;DHT22;19064;47.912;12.308;2023-04-25T01:20:28;7.30;99.90
32660;DHT22;19064;47.912;12.308;2023-04-25T01:22:57;7.30;99.90
32660;DHT22;19064;47.912;12.308;2023-04-25T01:25:23;7.30;99.90
32660;DHT22;19064;47.912;12.308;2023-04-25T01:27:51;7.20;99.90
32660;DHT22;19064;47.912;12.308;2023-04-25T01:30:18;7.30;99.90
32660;DHT22;19064;47.912;12.308;2023-04-25T01:32:45;7.30;99.90
32660;DHT22;19064;47.912;12.308;2023-04-25T01:35:12;7.30;99.90
32660;DHT22;19064;47.912;12.308;2023-04-25T01:37:39;7.30;99.90
32660;DHT22;19064;47.912;12.308;2023-04-25T01:40:10;7.40;99.90
32660;DHT22;19064;47.912;12.308;2023-04-25T01:42:39;7.30;99.90
32660;DHT22;19064;47.912;12.308;2023-04-25T01:45:07;7.40;99.90
32660;DHT22;19064;47.912;12.308;2023-04-25T01:47:34;7.40;99.90
32660;DHT22;19064;47.912;12.308;2023-04-25T01:50:01;7.40;99.90
32660;DHT22;19064;47.912;12.308;2023-04-25T01:52:28;7.40;99.90
32660;DHT22;19064;47.912;12.308;2023-04-25T01:54:55;7.50;99.90
32660;DHT22;19064;47.912;12.308;2023-04-25T01:57:24;7.40;99.90
32660;DHT22;19064;47.912;12.308;2023-04-25T01:59:51;7.60;99.90
32660;DHT22;19064;47.912;12.308;2023-04-25T02:02:19;7.70;99.90
32660;DHT22;19064;47.912;12.308;2023-04-25T02:04:45;7.70;99.90
32660;DHT22;19064;47.912;12.308;2023-04-25T02:07:12;7.60;99.90
32660;DHT22;19064;47.912;12.308;2023-04-25T02:09:39;7.60;99.90
32660;DHT22;19064;47.912;12.308;2023-04-25T02:12:07;7.40;99.90
32660;DHT22;19064;47.912;12.308;2023-04-25T02:14:35;7.40;99.90
32660;DHT22;19064;47.912;12.308;2023-04-25T02:17:01;7.30;99.90
32660;DHT22;19064;47.912;12.308;2023-04-25T02:19:28;7.40;99.90
32660;DHT22;19064;47.912;12.308;2023-04-25T02:21:55;7.30;99.90
32660;DHT22;19064;47.912;12.308;2023-04-25T02:24:22;7.30;99.90
32660;DHT22;19064;47.912;12.308;2023-04-25T02:26:49;7.10;99.90
32660;DHT22;19064;47.912;12.308;2023-04-25T02:29:16;7.00;99.90
32660;DHT22;19064;47.912;12.308;2023-04-25T02:31:44;7.00;99.90
32660;DHT22;19064;47.912;12.308;2023-04-25T02:34:11;7.00;99.90
32660;DHT22;19064;47.912;12.308;2023-04-25T02:36:37;7.00;99.90
32660;DHT22;19064;47.912;12.308;2023-04-25T02:39:04;7.00;99.90
32660;DHT22;19064;47.912;12.308;2023-04-25T02:41:31;7.00;99.90
32660;DHT22;19064;47.912;12.308;2023-04-25T02:43:57;7.00;99.90
32660;DHT22;19064;47.912;12.308;2023-04-25T02:46:24;7.00;99.90
32660;DHT22;19064;47.912;12.308;2023-04-25T02:48:52;7.00;99.90
32660;DHT22;19064;47.912;12.308;2023-04-25T02:51:19;7.10;99.90
32660;DHT22;19064;47.912;12.308;2023-04-25T02:53:45;7.20;99.90
32660;DHT22;19064;47.912;12.308;2023-04-25T02:56:12;7.30;99.90
32660;DHT22;19064;47.912;12.308;2023-04-25T02:58:39;7.10;99.90
32660;DHT22;19064;47.912;12.308;2023-04-25T03:01:06;7.10;99.90
32660;DHT22;19064;47.912;12.308;2023-04-25T03:03:32;7.20;99.90
32660;DHT22;19064;47.912;12.308;2023-04-25T03:06:00;7.10;99.90
32660;DHT22;19064;47.912;12.308;2023-04-25T03:08:27;6.90;99.90
32660;DHT22;19064;47.912;12.308;2023-04-25T03:10:57;6.80;99.90
32660;DHT22;19064;47.912;12.308;2023-04-25T03:13:24;6.80;99.90
32660;DHT22;19064;47.912;12.308;2023-04-25T03:15:51;6.70;99.90
32660;DHT22;19064;47.912;12.308;2023-04-25T03:18:18;6.70;99.90
32660;DHT22;19064;47.912;12.308;2023-04-25T03:20:44;6.70;99.90
32660;DHT22;19064;47.912;12.308;2023-04-25T03:23:13;6.70;99.90
32660;DHT22;19064;47.912;12.308;2023-04-25T03:25:40;6.70;99.90
32660;DHT22;19064;47.912;12.308;2023-04-25T03:28:07;6.70;99.90
32660;DHT22;19064;47.912;12.308;2023-04-25T03:30:33;6.60;99.90
32660;DHT22;19064;47.912;12.308;2023-04-25T03:33:00;6.60;99.90
32660;DHT22;19064;47.912;12.308;2023-04-25T03:35:27;6.60;99.90
32660;DHT22;19064;47.912;12.308;2023-04-25T03:37:53;6.50;99.90
32660;DHT22;19064;47.912;12.308;2023-04-25T03:40:22;6.40;99.90
32660;DHT22;19064;47.912;12.308;2023-04-25T03:42:48;6.40;99.90
32660;DHT22;19064;47.912;12.308;2023-04-25T03:45:15;6.30;99.90
32660;DHT22;19064;47.912;12.308;2023-04-25T03:47:42;6.30;99.90
32660;DHT22;19064;47.912;12.308;2023-04-25T03:50:09;6.30;99.90
32660;DHT22;19064;47.912;12.308;2023-04-25T03:52:36;6.40;99.90
32660;DHT22;19064;47.912;12.308;2023-04-25T03:55:03;6.40;99.90
32660;DHT22;19064;47.912;12.308;2023-04-25T03:57:32;6.50;99.90
32660;DHT22;19064;47.912;12.308;2023-04-25T03:59:59;6.50;99.90
32660;DHT22;19064;47.912;12.308;2023-04-25T04:02:25;6.50;99.90
32660;DHT22;19064;47.912;12.308;2023-04-25T04:04:52;6.40;99.90
32660;DHT22;19064;47.912;12.308;2023-04-25T04:07:19;6.50;99.90
32660;DHT22;19064;47.912;12.308;2023-04-25T04:09:46;6.60;99.90
32660;DHT22;19064;47.912;12.308;2023-04-25T04:12:12;6.70;99.90
32660;DHT22;19064;47.912;12.308;2023-04-25T04:14:41;6.70;99.90
32660;DHT22;19064;47.912;12.308;2023-04-25T04:17:08;6.90;99.90
32660;DHT22;19064;47.912;12.308;2023-04-25T04:19:34;6.90;99.90
32660;DHT22;19064;47.912;12.308;2023-04-25T04:22:01;7.00;99.90
32660;DHT22;19064;47.912;12.308;2023-04-25T04:24:28;7.00;99.90
32660;DHT22;19064;47.912;12.308;2023-04-25T04:26:55;7.20;99.90
32660;DHT22;19064;47.912;12.308;2023-04-25T04:29:23;7.10;99.90
32660;DHT22;19064;47.912;12.308;2023-04-25T04:31:53;7.10;99.90
32660;DHT22;19064;47.912;12.308;2023-04-25T04:34:21;6.90;99.90
32660;DHT22;19064;47.912;12.308;2023-04-25T04:36:51;6.90;99.90
32660;DHT22;19064;47.912;12.308;2023-04-25T04:39:19;6.90;99.90
32660;DHT22;19064;47.912;12.308;2023-04-25T04:41:46;6.70;99.90
32660;DHT22;19064;47.912;12.308;2023-04-25T04:44:13;6.70;99.90
32660;DHT22;19064;47.912;12.308;2023-04-25T04:46:40;6.70;99.90
32660;DHT22;19064;47.912;12.308;2023-04-25T04:49:09;6.70;99.90
32660;DHT22;19064;47.912;12.308;2023-04-25T04:51:36;6.70;99.90
32660;DHT22;19064;47.912;12.308;2023-04-25T04:54:06;6.60;99.90
32660;DHT22;19064;47.912;12.308;2023-04-25T04:56:33;6.70;99.90
32660;DHT22;19064;47.912;12.308;2023-04-25T04:59:00;6.70;99.90
32660;DHT22;19064;47.912;12.308;2023-04-25T05:01:27;6.80;99.90
32660;DHT22;19064;47.912;12.308;2023-04-25T05:03:55;6.60;99.90
32660;DHT22;19064;47.912;12.308;2023-04-25T05:06:27;6.70;99.90
32660;DHT22;19064;47.912;12.308;2023-04-25T05:08:54;6.70;99.90
32660;DHT22;19064;47.912;12.308;2023-04-25T05:11:21;6.80;99.90
32660;DHT22;19064;47.912;12.308;2023-04-25T05:13:49;6.80;99.90
32660;DHT22;19064;47.912;12.308;2023-04-25T05:16:15;6.70;99.90
32660;DHT22;19064;47.912;12.308;2023-04-25T05:18:42;6.80;99.90
32660;DHT22;19064;47.912;12.308;2023-04-25T05:21:09;6.90;99.90
32660;DHT22;19064;47.912;12.308;2023-04-25T05:23:37;7.00;99.90
32660;DHT22;19064;47.912;12.308;2023-04-25T05:26:04;7.10;99.90
32660;DHT22;19064;47.912;12.308;2023-04-25T05:28:31;7.10;99.90
32660;DHT22;19064;47.912;12.308;2023-04-25T05:30:57;7.00;99.90
32660;DHT22;19064;47.912;12.308;2023-04-25T05:33:24;7.00;99.90
32660;DHT22;19064;47.912;12.308;2023-04-25T05:35:51;7.00;99.90
32660;DHT22;19064;47.912;12.308;2023-04-25T05:38:18;6.90;99.90
32660;DHT22;19064;47.912;12.308;2023-04-25T05:40:46;6.80;99.90
32660;DHT22;19064;47.912;12.308;2023-04-25T05:43:12;6.70;99.90
32660;DHT22;19064;47.912;12.308;2023-04-25T05:45:39;6.50;99.90
32660;DHT22;19064;47.912;12.308;2023-04-25T05:48:06;6.40;99.90
32660;DHT22;19064;47.912;12.308;2023-04-25T05:50:33;6.40;99.90
32660;DHT22;19064;47.912;12.308;2023-04-25T05:52:59;6.40;99.90
32660;DHT22;19064;47.912;12.308;2023-04-25T05:55:26;6.40;99.90
32660;DHT22;19064;47.912;12.308;2023-04-25T05:57:54;6.60;99.90
32660;DHT22;19064;47.912;12.308;2023-04-25T06:00:21;6.60;99.90
32660;DHT22;19064;47.912;12.308;2023-04-25T06:02:48;6.70;99.90
32660;DHT22;19064;47.912;12.308;2023-04-25T06:05:15;6.90;99.90
32660;DHT22;19064;47.912;12.308;2023-04-25T06:07:41;7.00;99.90
32660;DHT22;19064;47.912;12.308;2023-04-25T06:10:09;7.10;99.90
32660;DHT22;19064;47.912;12.308;2023-04-25T06:12:35;7.10;99.90
32660;DHT22;19064;47.912;12.308;2023-04-25T06:15:06;7.20;99.90
32660;DHT22;19064;47.912;12.308;2023-04-25T06:17:33;7.20;99.90
32660;DHT22;19064;47.912;12.308;2023-04-25T06:20:00;7.30;99.90
32660;DHT22;19064;47.912;12.308;2023-04-25T06:22:27;7.30;99.90
32660;DHT22;19064;47.912;12.308;2023-04-25T06:24:54;7.20;99.90
32660;DHT22;19064;47.912;12.308;2023-04-25T06:27:22;7.10;99.90
32660;DHT22;19064;47.912;12.308;2023-04-25T06:29:49;7.10;99.90
32660;DHT22;19064;47.912;12.308;2023-04-25T06:32:17;7.10;99.90
32660;DHT22;19064;47.912;12.308;2023-04-25T06:34:44;7.00;99.90
32660;DHT22;19064;47.912;12.308;2023-04-25T06:37:11;7.10;99.90
32660;DHT22;19064;47.912;12.308;2023-04-25T06:39:37;7.10;99.90
32660;DHT22;19064;47.912;12.308;2023-04-25T06:42:04;7.20;99.90
32660;DHT22;19064;47.912;12.308;2023-04-25T06:44:31;7.20;99.90
32660;DHT22;19064;47.912;12.308;2023-04-25T06:46:58;7.20;99.90
32660;DHT22;19064;47.912;12.308;2023-04-25T06:49:27;7.30;99.90
32660;DHT22;19064;47.912;12.308;2023-04-25T06:51:54;7.50;99.90
32660;DHT22;19064;47.912;12.308;2023-04-25T06:54:21;7.60;99.90
32660;DHT22;19064;47.912;12.308;2023-04-25T06:56:47;7.70;99.90
32660;DHT22;19064;47.912;12.308;2023-04-25T06:59:15;7.70;99.90
32660;DHT22;19064;47.912;12.308;2023-04-25T07:01:41;7.70;99.90
32660;DHT22;19064;47.912;12.308;2023-04-25T07:04:08;7.70;99.90
32660;DHT22;19064;47.912;12.308;2023-04-25T07:06:36;7.70;99.90
32660;DHT22;19064;47.912;12.308;2023-04-25T07:09:07;7.80;99.90
32660;DHT22;19064;47.912;12.308;2023-04-25T07:11:35;7.90;99.90
32660;DHT22;19064;47.912;12.308;2023-04-25T07:14:02;7.90;99.90
32660;DHT22;19064;47.912;12.308;2023-04-25T07:16:29;7.90;99.90
32660;DHT22;19064;47.912;12.308;2023-04-25T07:18:55;8.00;99.90
32660;DHT22;19064;47.912;12.308;2023-04-25T07:21:22;8.00;99.90
32660;DHT22;19064;47.912;12.308;2023-04-25T07:23:50;8.10;99.90
32660;DHT22;19064;47.912;12.308;2023-04-25T07:26:17;8.10;99.90
32660;DHT22;19064;47.912;12.308;2023-04-25T07:28:45;8.30;99.90
32660;DHT22;19064;47.912;12.308;2023-04-25T07:31:15;8.40;99.90
32660;DHT22;19064;47.912;12.308;2023-04-25T07:33:43;8.70;99.90
32660;DHT22;19064;47.912;12.308;2023-04-25T07:36:10;9.00;99.90
32660;DHT22;19064;47.912;12.308;2023-04-25T07:38:37;9.10;99.90
32660;DHT22;19064;47.912;12.308;2023-04-25T07:41:05;9.30;99.90
32660;DHT22;19064;47.912;12.308;2023-04-25T07:43:32;9.30;99.90
32660;DHT22;19064;47.912;12.308;2023-04-25T07:45:59;9.40;99.90
32660;DHT22;19064;47.912;12.308;2023-04-25T07:48:26;9.40;99.90
32660;DHT22;19064;47.912;12.308;2023-04-25T07:50:53;9.40;99.90
32660;DHT22;19064;47.912;12.308;2023-04-25T07:53:19;9.60;99.90
32660;DHT22;19064;47.912;12.308;2023-04-25T07:55:46;9.70;99.90
32660;DHT22;19064;47.912;12.308;2023-04-25T07:58:14;9.80;99.90
32660;DHT22;19064;47.912;12.308;2023-04-25T08:00:46;9.80;99.90
32660;DHT22;19064;47.912;12.308;2023-04-25T08:03:13;9.80;99.90
32660;DHT22;19064;47.912;12.308;2023-04-25T08:05:40;9.70;99.90
32660;DHT22;19064;47.912;12.308;2023-04-25T08:08:07;9.60;99.90
32660;DHT22;19064;47.912;12.308;2023-04-25T08:10:33;9.30;99.90
32660;DHT22;19064;47.912;12.308;2023-04-25T08:13:00;8.90;99.90
32660;DHT22;19064;47.912;12.308;2023-04-25T08:15:29;8.60;99.90
32660;DHT22;19064;47.912;12.308;2023-04-25T08:17:55;8.40;99.90
32660;DHT22;19064;47.912;12.308;2023-04-25T08:20:22;8.40;99.90
32660;DHT22;19064;47.912;12.308;2023-04-25T08:22:50;8.40;99.90
32660;DHT22;19064;47.912;12.308;2023-04-25T08:25:17;8.40;99.90
32660;DHT22;19064;47.912;12.308;2023-04-25T08:27:43;8.30;99.90
32660;DHT22;19064;47.912;12.308;2023-04-25T08:30:11;8.40;99.90
32660;DHT22;19064;47.912;12.308;2023-04-25T08:32:39;8.50;99.90
32660;DHT22;19064;47.912;12.308;2023-04-25T08:35:06;8.70;99.90
32660;DHT22;19064;47.912;12.308;2023-04-25T08:37:33;9.10;99.90
32660;DHT22;19064;47.912;12.308;2023-04-25T08:40:01;9.40;99.90
32660;DHT22;19064;47.912;12.308;2023-04-25T08:42:33;9.80;99.90
32660;DHT22;19064;47.912;12.308;2023-04-25T08:45:02;10.20;99.90
32660;DHT22;19064;47.912;12.308;2023-04-25T08:47:30;10.30;99.90
32660;DHT22;19064;47.912;12.308;2023-04-25T08:50:02;10.30;99.90
32660;DHT22;19064;47.912;12.308;2023-04-25T08:52:35;10.00;99.90
32660;DHT22;19064;47.912;12.308;2023-04-25T08:55:02;9.60;99.90
32660;DHT22;19064;47.912;12.308;2023-04-25T08:57:31;9.70;99.90
32660;DHT22;19064;47.912;12.308;2023-04-25T09:00:00;9.80;99.90
32660;DHT22;19064;47.912;12.308;2023-04-25T09:02:28;9.90;99.90
32660;DHT22;19064;47.912;12.308;2023-04-25T09:04:56;10.10;99.90
32660;DHT22;19064;47.912;12.308;2023-04-25T09:07:24;10.30;99.90
32660;DHT22;19064;47.912;12.308;2023-04-25T09:09:51;10.50;99.90
32660;DHT22;19064;47.912;12.308;2023-04-25T09:12:18;10.60;99.90
32660;DHT22;19064;47.912;12.308;2023-04-25T09:15:05;10.60;99.90
32660;DHT22;19064;47.912;12.308;2023-04-25T09:17:32;10.70;99.90
32660;DHT22;19064;47.912;12.308;2023-04-25T09:20:06;10.90;99.90
32660;DHT22;19064;47.912;12.308;2023-04-25T09:22:35;11.00;99.90
32660;DHT22;19064;47.912;12.308;2023-04-25T09:25:03;11.10;99.90
32660;DHT22;19064;47.912;12.308;2023-04-25T09:27:32;11.40;99.90
32660;DHT22;19064;47.912;12.308;2023-04-25T09:29:59;11.60;99.90
32660;DHT22;19064;47.912;12.308;2023-04-25T09:32:26;11.50;99.90
32660;DHT22;19064;47.912;12.308;2023-04-25T09:34:54;11.40;99.90
32660;DHT22;19064;47.912;12.308;2023-04-25T09:37:23;11.30;99.90
32660;DHT22;19064;47.912;12.308;2023-04-25T09:39:55;11.40;99.90
32660;DHT22;19064;47.912;12.308;2023-04-25T09:42:23;11.70;99.90
32660;DHT22;19064;47.912;12.308;2023-04-25T09:44:52;11.80;99.90
32660;DHT22;19064;47.912;12.308;2023-04-25T09:47:19;12.00;99.90
32660;DHT22;19064;47.912;12.308;2023-04-25T09:49:49;12.10;99.90
32660;DHT22;19064;47.912;12.308;2023-04-25T09:52:17;12.20;99.90
32660;DHT22;19064;47.912;12.308;2023-04-25T09:54:44;12.20;99.90
32660;DHT22;19064;47.912;12.308;2023-04-25T09:57:14;12.10;99.90
32660;DHT22;19064;47.912;12.308;2023-04-25T09:59:46;11.70;99.90
32660;DHT22;19064;47.912;12.308;2023-04-25T10:02:14;11.50;99.90
32660;DHT22;19064;47.912;12.308;2023-04-25T10:04:41;11.30;99.90
32660;DHT22;19064;47.912;12.308;2023-04-25T10:07:11;10.90;99.90
32660;DHT22;19064;47.912;12.308;2023-04-25T10:09:39;10.40;99.90
32660;DHT22;19064;47.912;12.308;2023-04-25T10:12:07;9.80;99.90
32660;DHT22;19064;47.912;12.308;2023-04-25T10:14:35;9.20;99.90
32660;DHT22;19064;47.912;12.308;2023-04-25T10:17:02;8.70;99.90
32660;DHT22;19064;47.912;12.308;2023-04-25T10:19:29;8.50;99.90
32660;DHT22;19064;47.912;12.308;2023-04-25T10:22:06;8.60;99.90
32660;DHT22;19064;47.912;12.308;2023-04-25T10:24:34;8.70;99.90
32660;DHT22;19064;47.912;12.308;2023-04-25T10:27:01;9.00;99.90
32660;DHT22;19064;47.912;12.308;2023-04-25T10:29:28;9.30;99.90
32660;DHT22;19064;47.912;12.308;2023-04-25T10:31:57;9.60;99.90
32660;DHT22;19064;47.912;12.308;2023-04-25T10:34:25;9.90;99.90
32660;DHT22;19064;47.912;12.308;2023-04-25T10:37:04;10.20;99.90
32660;DHT22;19064;47.912;12.308;2023-04-25T10:39:32;10.50;99.90
32660;DHT22;19064;47.912;12.308;2023-04-25T10:42:02;10.70;99.90
32660;DHT22;19064;47.912;12.308;2023-04-25T10:44:29;11.00;99.90
32660;DHT22;19064;47.912;12.308;2023-04-25T10:46:59;11.20;99.90
32660;DHT22;19064;47.912;12.308;2023-04-25T10:49:31;11.40;99.90
32660;DHT22;19064;47.912;12.308;2023-04-25T10:52:25;11.50;99.90
32660;DHT22;19064;47.912;12.308;2023-04-25T10:54:54;11.60;99.90
32660;DHT22;19064;47.912;12.308;2023-04-25T10:57:32;11.60;99.90
32660;DHT22;19064;47.912;12.308;2023-04-25T11:00:06;11.60;99.90
32660;DHT22;19064;47.912;12.308;2023-04-25T11:02:41;11.60;99.90
32660;DHT22;19064;47.912;12.308;2023-04-25T11:05:08;11.50;99.90
32660;DHT22;19064;47.912;12.308;2023-04-25T11:07:38;11.50;99.90
32660;DHT22;19064;47.912;12.308;2023-04-25T11:10:06;11.50;99.90
32660;DHT22;19064;47.912;12.308;2023-04-25T11:12:33;11.40;99.90
32660;DHT22;19064;47.912;12.308;2023-04-25T11:15:02;11.40;99.90
32660;DHT22;19064;47.912;12.308;2023-04-25T11:17:29;11.40;99.90
32660;DHT22;19064;47.912;12.308;2023-04-25T11:19:57;11.20;99.90
32660;DHT22;19064;47.912;12.308;2023-04-25T11:22:24;11.20;99.90
32660;DHT22;19064;47.912;12.308;2023-04-25T11:24:52;11.00;99.90
32660;DHT22;19064;47.912;12.308;2023-04-25T11:27:20;11.00;99.90
32660;DHT22;19064;47.912;12.308;2023-04-25T11:29:50;11.10;99.90
32660;DHT22;19064;47.912;12.308;2023-04-25T11:32:17;11.20;99.90
32660;DHT22;19064;47.912;12.308;2023-04-25T11:34:44;11.30;99.90
32660;DHT22;19064;47.912;12.308;2023-04-25T11:37:13;11.50;99.90
32660;DHT22;19064;47.912;12.308;2023-04-25T11:39:43;11.80;99.90
32660;DHT22;19064;47.912;12.308;2023-04-25T11:42:11;12.10;99.90
32660;DHT22;19064;47.912;12.308;2023-04-25T11:44:39;12.30;99.90
32660;DHT22;19064;47.912;12.308;2023-04-25T11:47:06;12.60;99.90
32660;DHT22;19064;47.912;12.308;2023-04-25T11:49:33;12.60;99.90
32660;DHT22;19064;47.912;12.308;2023-04-25T11:52:01;12.50;99.90
32660;DHT22;19064;47.912;12.308;2023-04-25T11:54:29;12.40;99.90
32660;DHT22;19064;47.912;12.308;2023-04-25T11:56:56;12.40;99.90
32660;DHT22;19064;47.912;12.308;2023-04-25T11:59:23;12.40;99.90
32660;DHT22;19064;47.912;12.308;2023-04-25T12:01:53;12.40;99.90
32660;DHT22;19064;47.912;12.308;2023-04-25T12:04:21;12.60;99.90
32660;DHT22;19064;47.912;12.308;2023-04-25T12:06:49;12.90;99.90
32660;DHT22;19064;47.912;12.308;2023-04-25T12:09:18;13.10;99.90
32660;DHT22;19064;47.912;12.308;2023-04-25T12:11:48;13.30;99.90
32660;DHT22;19064;47.912;12.308;2023-04-25T12:14:25;13.20;99.90
32660;DHT22;19064;47.912;12.308;2023-04-25T12:16:52;12.60;99.90
32660;DHT22;19064;47.912;12.308;2023-04-25T12:19:20;12.00;99.90
32660;DHT22;19064;47.912;12.308;2023-04-25T12:21:49;11.30;99.90
32660;DHT22;19064;47.912;12.308;2023-04-25T12:24:18;10.60;99.90
32660;DHT22;19064;47.912;12.308;2023-04-25T12:26:51;10.20;99.90
32660;DHT22;19064;47.912;12.308;2023-04-25T12:29:20;9.80;99.90
32660;DHT22;19064;47.912;12.308;2023-04-25T12:31:46;9.60;99.90
32660;DHT22;19064;47.912;12.308;2023-04-25T12:34:13;9.50;99.90
32660;DHT22;19064;47.912;12.308;2023-04-25T12:36:40;9.40;99.90
32660;DHT22;19064;47.912;12.308;2023-04-25T12:39:07;9.40;99.90
32660;DHT22;19064;47.912;12.308;2023-04-25T12:41:35;9.40;99.90
32660;DHT22;19064;47.912;12.308;2023-04-25T12:44:04;9.20;99.90
32660;DHT22;19064;47.912;12.308;2023-04-25T12:46:31;9.10;99.90
32660;DHT22;19064;47.912;12.308;2023-04-25T12:48:57;9.20;99.90
32660;DHT22;19064;47.912;12.308;2023-04-25T12:51:25;9.20;99.90
32660;DHT22;19064;47.912;12.308;2023-04-25T12:53:53;9.10;99.90
32660;DHT22;19064;47.912;12.308;2023-04-25T12:56:20;9.30;99.90
32660;DHT22;19064;47.912;12.308;2023-04-25T12:58:46;9.40;99.90
32660;DHT22;19064;47.912;12.308;2023-04-25T13:01:15;9.50;99.90
32660;DHT22;19064;47.912;12.308;2023-04-25T13:03:42;9.80;99.90
32660;DHT22;19064;47.912;12.308;2023-04-25T13:06:10;9.90;99.90
32660;DHT22;19064;47.912;12.308;2023-04-25T13:08:38;9.90;99.90
32660;DHT22;19064;47.912;12.308;2023-04-25T13:11:05;9.90;99.90
32660;DHT22;19064;47.912;12.308;2023-04-25T13:13:32;10.00;99.90
32660;DHT22;19064;47.912;12.308;2023-04-25T13:16:00;10.00;99.90
32660;DHT22;19064;47.912;12.308;2023-04-25T13:18:28;10.00;99.90
32660;DHT22;19064;47.912;12.308;2023-04-25T13:20:57;10.10;99.90
32660;DHT22;19064;47.912;12.308;2023-04-25T13:23:27;10.20;99.90
32660;DHT22;19064;47.912;12.308;2023-04-25T13:25:54;10.00;99.90
32660;DHT22;19064;47.912;12.308;2023-04-25T13:28:23;10.00;99.90
32660;DHT22;19064;47.912;12.308;2023-04-25T13:30:50;9.90;99.90
32660;DHT22;19064;47.912;12.308;2023-04-25T13:33:17;9.70;99.90
32660;DHT22;19064;47.912;12.308;2023-04-25T13:35:45;9.70;99.90
32660;DHT22;19064;47.912;12.308;2023-04-25T13:38:19;10.00;99.90
32660;DHT22;19064;47.912;12.308;2023-04-25T13:40:46;10.10;99.90
32660;DHT22;19064;47.912;12.308;2023-04-25T13:43:12;10.20;99.90
32660;DHT22;19064;47.912;12.308;2023-04-25T13:45:39;10.10;99.90
32660;DHT22;19064;47.912;12.308;2023-04-25T13:48:06;10.20;99.90
32660;DHT22;19064;47.912;12.308;2023-04-25T13:50:33;10.20;99.90
32660;DHT22;19064;47.912;12.308;2023-04-25T13:53:01;10.10;99.90
32660;DHT22;19064;47.912;12.308;2023-04-25T13:55:27;10.00;99.90
32660;DHT22;19064;47.912;12.308;2023-04-25T13:57:54;10.00;99.90
32660;DHT22;19064;47.912;12.308;2023-04-25T14:00:21;10.10;99.90
32660;DHT22;19064;47.912;12.308;2023-04-25T14:02:48;10.10;99.90
32660;DHT22;19064;47.912;12.308;2023-04-25T14:05:14;10.20;99.90
32660;DHT22;19064;47.912;12.308;2023-04-25T14:07:41;10.10;99.90
32660;DHT22;19064;47.912;12.308;2023-04-25T14:10:10;10.10;99.90
32660;DHT22;19064;47.912;12.308;2023-04-25T14:12:37;9.80;99.90
32660;DHT22;19064;47.912;12.308;2023-04-25T14:15:04;9.70;99.90
32660;DHT22;19064;47.912;12.308;2023-04-25T14:17:31;9.50;99.90
32660;DHT22;19064;47.912;12.308;2023-04-25T14:19:58;9.50;99.90
32660;DHT22;19064;47.912;12.308;2023-04-25T14:22:24;9.60;99.90
32660;DHT22;19064;47.912;12.308;2023-04-25T14:24:51;9.60;99.90
32660;DHT22;19064;47.912;12.308;2023-04-25T14:27:19;9.60;99.90
32660;DHT22;19064;47.912;12.308;2023-04-25T14:29:46;9.60;99.90
32660;DHT22;19064;47.912;12.308;2023-04-25T14:32:13;9.50;99.90
32660;DHT22;19064;47.912;12.308;2023-04-25T14:34:40;9.30;99.90
32660;DHT22;19064;47.912;12.308;2023-04-25T14:37:07;8.90;99.90
32660;DHT22;19064;47.912;12.308;2023-04-25T14:39:34;8.40;99.90
32660;DHT22;19064;47.912;12.308;2023-04-25T14:42:02;8.20;99.90
32660;DHT22;19064;47.912;12.308;2023-04-25T14:44:30;8.20;99.90
32660;DHT22;19064;47.912;12.308;2023-04-25T14:46:56;8.10;99.90
32660;DHT22;19064;47.912;12.308;2023-04-25T14:49:23;8.10;99.90
32660;DHT22;19064;47.912;12.308;2023-04-25T14:51:50;8.10;99.90
32660;DHT22;19064;47.912;12.308;2023-04-25T14:54:17;7.90;99.90
32660;DHT22;19064;47.912;12.308;2023-04-25T14:56:43;7.90;99.90
32660;DHT22;19064;47.912;12.308;2023-04-25T14:59:10;7.90;99.90
32660;DHT22;19064;47.912;12.308;2023-04-25T15:01:38;7.80;99.90
32660;DHT22;19064;47.912;12.308;2023-04-25T15:04:05;7.50;99.90
32660;DHT22;19064;47.912;12.308;2023-04-25T15:06:33;7.60;99.90
32660;DHT22;19064;47.912;12.308;2023-04-25T15:08:59;7.60;99.90
32660;DHT22;19064;47.912;12.308;2023-04-25T15:11:26;7.60;99.90
32660;DHT22;19064;47.912;12.308;2023-04-25T15:13:53;7.80;99.90
32660;DHT22;19064;47.912;12.308;2023-04-25T15:16:20;7.90;99.90
32660;DHT22;19064;47.912;12.308;2023-04-25T15:18:48;8.00;99.90
32660;DHT22;19064;47.912;12.308;2023-04-25T15:21:14;8.10;99.90
32660;DHT22;19064;47.912;12.308;2023-04-25T15:23:41;8.10;99.90
32660;DHT22;19064;47.912;12.308;2023-04-25T15:26:08;8.10;99.90
32660;DHT22;19064;47.912;12.308;2023-04-25T15:28:35;8.10;99.90
32660;DHT22;19064;47.912;12.308;2023-04-25T15:31:01;8.20;99.90